Погода Эстелина 2 недели

Эстели, Никарагуа

28 февраля-12 марта
  • 28февраля
    Сегодня
    +17°
    +30°
    Практически безоблачно
    ВремяПогодаТемператураВлажностьДавлениеВетер, м/сВероятность осадков
    00:00Ясно и безоблачно+19°C88 %690 мм4.2 м/с2 %
    03:00Практически безоблачно+18°C92 %689 мм3.3 м/с4 %
    06:00Облачно с прояснениями+18°C93 %690 мм3.5 м/с7 %
    09:00Ясно и безоблачно+23°C59 %692 мм5.4 м/с11 %
    12:00Ясно и безоблачно+28°C37 %692 мм5.4 м/с5 %
    15:00Практически безоблачно+29°C37 %690 мм5.3 м/с2 %
    18:00Ясно и безоблачно+26°C48 %690 мм4.3 м/с2 %
    21:00Ясно и безоблачно+22°C74 %691 мм4.4 м/с2 %
  • 29февраля
    Четверг
    +17°
    +29°
    Облачно с прояснениями
    ВремяПогодаТемператураВлажностьДавлениеВетер, м/сВероятность осадков
    00:00Ясно и безоблачно+20°C87 %691 мм4.2 м/с2 %
    03:00Ясно и безоблачно+19°C89 %690 мм4.1 м/с2 %
    06:00Практически безоблачно+17°C94 %690 мм3.8 м/с4 %
    09:00Практически безоблачно+22°C57 %693 мм6.1 м/с10 %
    12:00Пасмурно, сплошная облачность+26°C50 %692 мм6.1 м/с16 %
    15:00Облачно с прояснениями+29°C47 %691 мм6.0 м/с20 %
    18:00Ясно и безоблачно+25°C65 %691 мм4.8 м/с11 %
    21:00Ясно и безоблачно+21°C80 %692 мм4.5 м/с4 %
  • 01марта
    Пятница
    +17°
    +31°
    Облачно с прояснениями
    ВремяПогодаТемператураВлажностьДавлениеВетер, м/сВероятность осадков
    00:00Практически безоблачно+20°C89 %692 мм3.6 м/с4 %
    03:00Практически безоблачно+19°C95 %691 мм2.9 м/с8 %
    06:00Облачно с прояснениями+18°C96 %691 мм3.3 м/с10 %
    09:00Небольшая облачность+24°C58 %693 мм6.9 м/с22 %
    12:00Практически безоблачно+28°C43 %693 мм6.3 м/с25 %
    15:00Облачно с прояснениями+30°C38 %691 мм5.5 м/с18 %
    18:00Ясно и безоблачно+25°C62 %691 мм4.3 м/с12 %
    21:00Ясно и безоблачно+22°C82 %692 мм4.5 м/с2 %
  • 02марта
    Суббота
    +16°
    +31°
    Облачно с прояснениями
    ВремяПогодаТемператураВлажностьДавлениеВетер, м/сВероятность осадков
    00:00Практически безоблачно+20°C90 %691 мм3.4 м/с3 %
    03:00Практически безоблачно+19°C93 %691 мм2.7 м/с4 %
    06:00Ясно и безоблачно+18°C94 %691 мм2.6 м/с3 %
    09:00Небольшая облачность+24°C55 %693 мм4.9 м/с12 %
    12:00Небольшая облачность+29°C38 %693 мм4.9 м/с20 %
    15:00Облачно с прояснениями+30°C39 %691 мм4.5 м/с22 %
    18:00Ясно и безоблачно+26°C60 %691 мм4.6 м/с14 %
    21:00Ясно и безоблачно+21°C80 %692 мм3.5 м/с2 %
  • 03марта
    Воскресенье
    +17°
    +31°
    Ясно и безоблачно
    ВремяПогодаТемператураВлажностьДавлениеВетер, м/сВероятность осадков
    00:00Ясно и безоблачно+20°C87 %691 мм1.9 м/с2 %
    03:00Ясно и безоблачно+18°C95 %690 мм1.7 м/с2 %
    06:00Небольшая облачность+17°C97 %690 мм2.3 м/с3 %
    09:00Ясно и безоблачно+23°C55 %692 мм3.8 м/с4 %
    12:00Ясно и безоблачно+28°C35 %692 мм3.9 м/с3 %
    15:00Ясно и безоблачно+30°C31 %690 мм4.0 м/с2 %
    18:00Ясно и безоблачно+28°C39 %690 мм3.1 м/с2 %
    21:00Ясно и безоблачно+21°C67 %690 мм0.8 м/с2 %
Мы используем cookies
Соглашаюсь